Wintergreen, Virginia
Current Conditions -  °F | °C
As of 1:55 PM on Monday 20 Oct 2014 (Local Time) from KW13 Reporting Station
Clear Clear  
Wind Chill: 66°   Ceiling: Unl
Heat Index: 66°   Visibility: 10mi
Dew Point: 38°   Wind: 10mph
Humidity: 36%   Direction: 220°SW
Pressure: 29.97"   Gusts: 18mph
Location:  37.8814°N, 78.882°W
Report Text: KW13 201755Z AUTO 22009G16KT 190V260 10SM CLR 19/03 A2997 RMK AO1 T01870032 10187 20011
Loading
Personal Weather Stations






























Interactive Weather Map
Tropical Storm Tracking
New forecast layout! Learn more

10-Day Weather Forecast

Advertisements
Track Severe Weather on mobile